RYR6QQ EPPO-EGPH
Flight info
| Callsign | RYR6QQ |
|---|---|
| Flight time | N/A |
| Altitude | 38000 |
| Route | XERB2B XERBI DCT BINKA DCT NEDIK DCT PETIL DCT SURAT DCT CUTEL DCT TARTN |
| Aircraft | B738/M-SDE2E3FGHIRWXY/LB1 |
Departure
| Time | 2026-05-08 21:23 |
|---|---|
| Airport | Poznań-Ławica Airport (EPPO) |
Arrival
| Time | N/A |
|---|---|
| Airport | Edinburgh Airport (EGPH) |
| Time | Latitude | Longitude | Altitude | Speed | Heading |
|---|---|---|---|---|---|
| 2026-05-08 20:47 | 52.41577 | 16.82987 | 287 ft | 0 kts | 192° |
| 2026-05-08 21:10 | 52.41584 | 16.82990 | 289 ft | 3 kts | 192° |
| 2026-05-08 21:10 | 52.41604 | 16.82996 | 291 ft | 3 kts | 192° |
| 2026-05-08 21:10 | 52.41623 | 16.83001 | 294 ft | 3 kts | 164° |
| 2026-05-08 21:10 | 52.41640 | 16.82985 | 297 ft | 3 kts | 121° |
| 2026-05-08 21:11 | 52.41647 | 16.82955 | 287 ft | 3 kts | 103° |
| 2026-05-08 21:11 | 52.41651 | 16.82923 | 287 ft | 3 kts | 103° |
| 2026-05-08 21:11 | 52.41656 | 16.82892 | 287 ft | 3 kts | 103° |
| 2026-05-08 21:11 | 52.41660 | 16.82860 | 287 ft | 3 kts | 103° |
| 2026-05-08 21:12 | 52.41665 | 16.82829 | 287 ft | 3 kts | 103° |
| 2026-05-08 21:12 | 52.41669 | 16.82797 | 292 ft | 3 kts | 103° |
| 2026-05-08 21:12 | 52.41673 | 16.82766 | 294 ft | 3 kts | 118° |
| 2026-05-08 21:12 | 52.41687 | 16.82742 | 291 ft | 3 kts | 161° |
| 2026-05-08 21:13 | 52.41706 | 16.82740 | 287 ft | 3 kts | 184° |
| 2026-05-08 21:13 | 52.41726 | 16.82742 | 287 ft | 3 kts | 183° |
| 2026-05-08 21:13 | 52.41730 | 16.82742 | 292 ft | 0 kts | 183° |
| 2026-05-08 21:21 | 52.41724 | 16.82742 | 287 ft | 3 kts | 183° |
| 2026-05-08 21:21 | 52.41686 | 16.82745 | 292 ft | 7 kts | 161° |
| 2026-05-08 21:21 | 52.41666 | 16.82829 | 287 ft | 9 kts | 96° |
| 2026-05-08 21:22 | 52.41652 | 16.82943 | 287 ft | 11 kts | 103° |
| 2026-05-08 21:22 | 52.41632 | 16.83077 | 287 ft | 13 kts | 102° |
| 2026-05-08 21:22 | 52.41612 | 16.83231 | 287 ft | 15 kts | 102° |
| 2026-05-08 21:22 | 52.41589 | 16.83395 | 287 ft | 15 kts | 103° |
| 2026-05-08 21:23 | 52.41569 | 16.83553 | 287 ft | 14 kts | 95° |
| 2026-05-08 21:23 | 52.41565 | 16.83708 | 287 ft | 13 kts | 92° |
| 2026-05-08 21:23 | 52.41535 | 16.84744 | 2142 ft | 210 kts | 91° |